Schaupps, Nebraska
Current Conditions -  °F | °C
As of 11:53 AM on Friday 24 Oct 2014 (Local Time) from KODX Reporting Station
Clear Clear  
Wind Chill: 58°   Ceiling: Unl
Heat Index: 58°   Visibility: 10mi
Dew Point: 52°   Wind: 5mph
Humidity: 81%   Direction: 330°NNW
Pressure: 29.96"   Gusts: NA
Location:  41.3°N, 98.8143°W
Report Text: KODX 241653Z AUTO 33004KT 10SM CLR 14/11 A2996 RMK AO2 SLP144 T01440111
Loading
Personal Weather Stations






























Interactive Weather Map New forecast layout! Learn more

10-Day Weather Forecast

Advertisements
Track Severe Weather on mobile